Hamaritha — PF2437 — position and weather

sailwx.info

Track history (hours):
 
Tides and Currents Weather Stations Pressure Air Temp Water Temp Dewpoint Dewpoint Depression Visibility Wind Speed Wind Dir Waves Ship Positions

Hamaritha

Last reported at 2015-Jul-08 01:33 UTC. Time now 2015-Jul-08 02:16 UTC.
Position N 51°14' E 004°27'.

Length 86 m.

Type: Ship. MMSI: 244700691.

Date/timePositionNaut miles runAvg speedWind from/ knotsBaromVisibWave heightAir tempDewpointWater temp
2015-Jul-08 01:33N 51°14' E 004°27'0 0.0
2015-Jul-08 00:33N 51°14' E 004°27'0 0.0
2015-Jul-07 23:33N 51°14' E 004°27'0 0.0
2015-Jul-07 22:33N 51°14' E 004°27'0 0.0
2015-Jul-07 21:33N 51°14' E 004°27'0 0.0
2015-Jul-07 20:33N 51°14' E 004°27'0 0.0
2015-Jul-07 19:33N 51°14' E 004°27'0 0.0
2015-Jul-07 18:33N 51°14' E 004°27'0 0.0
2015-Jul-07 17:33N 51°14' E 004°27'0 0.0
2015-Jul-07 16:33N 51°14' E 004°27'0 0.0
2015-Jul-07 15:33N 51°14' E 004°27'0 0.0
2015-Jul-07 14:33N 51°14' E 004°27'0 0.0
2015-Jul-07 13:33N 51°14' E 004°27'0 0.0
2015-Jul-07 12:33N 51°14' E 004°27'0 0.0
2015-Jul-07 11:33N 51°14' E 004°27'0 0.0
2015-Jul-07 10:33N 51°14' E 004°27'0 0.0
2015-Jul-07 09:33N 51°14' E 004°27'0 0.0
2015-Jul-07 08:33N 51°14' E 004°27'0 0.0
2015-Jul-07 07:34N 51°14' E 004°27'0 0.0
2015-Jul-07 06:33N 51°14' E 004°27'0 0.0
2015-Jul-07 05:33N 51°14' E 004°27'0 0.0
2015-Jul-07 04:33N 51°14' E 004°27'0 0.0
2015-Jul-07 03:33N 51°14' E 004°27'0 0.0
2015-Jul-07 02:34N 51°14' E 004°27'0 0.0
2015-Jul-07 01:34N 51°14' E 004°27'0 0.0
2015-Jul-07 00:33N 51°14' E 004°27'0 0.0
2015-Jul-06 23:33N 51°14' E 004°27'0 0.0
2015-Jul-06 22:34N 51°14' E 004°27'0 0.0
2015-Jul-06 21:33N 51°14' E 004°27'0 0.0
2015-Jul-06 20:34N 51°14' E 004°27'0 0.0
2015-Jul-06 19:34N 51°14' E 004°27'0 0.0
2015-Jul-06 18:34N 51°14' E 004°27'0 0.0
2015-Jul-06 17:33N 51°14' E 004°27'0 0.0
2015-Jul-06 16:34N 51°14' E 004°27'0 0.0
2015-Jul-06 15:33N 51°14' E 004°27'0 0.0
2015-Jul-06 14:33N 51°14' E 004°27'0 0.0
2015-Jul-06 13:34N 51°14' E 004°27'0 0.0
2015-Jul-06 12:33N 51°14' E 004°27'0 0.0
2015-Jul-06 11:34N 51°14' E 004°27'0 0.0
2015-Jul-06 10:34N 51°14' E 004°27'0 0.0
2015-Jul-06 09:33N 51°14' E 004°27'0 0.0
2015-Jul-06 08:34N 51°14' E 004°27'0 0.0
2015-Jul-06 07:33N 51°14' E 004°27'0 0.0
2015-Jul-06 06:34N 51°14' E 004°27'0 0.0
2015-Jul-06 05:33N 51°14' E 004°27'0 0.0
2015-Jul-06 04:34N 51°14' E 004°27'0 0.0
2015-Jul-06 03:33N 51°14' E 004°27'0 0.0
2015-Jul-06 02:33N 51°14' E 004°27'0 0.0
2015-Jul-06 01:33N 51°14' E 004°27'0 0.0
2015-Jul-06 00:33N 51°14' E 004°27'0 0.0
2015-Jul-05 06:22N 51°14' E 004°27'0 0.0
2015-Jul-05 05:33N 51°14' E 004°27'0 0.0
2015-Jul-05 04:33N 51°14' E 004°27'0 0.0
2015-Jul-05 03:33N 51°14' E 004°27'0 0.0
2015-Jul-05 02:33N 51°14' E 004°27'0 0.0
2015-Jul-05 01:33N 51°14' E 004°27'0 0.0
2015-Jul-05 00:33N 51°14' E 004°27'0 0.0
2015-Jul-04 23:33N 51°14' E 004°27'0 0.0
2015-Jul-04 22:33N 51°14' E 004°27'0 0.0
2015-Jul-04 21:33N 51°14' E 004°27'0 0.0
2015-Jul-04 20:33N 51°14' E 004°27'0 0.0
2015-Jul-04 19:33N 51°14' E 004°27'0 0.0
2015-Jul-04 18:33N 51°14' E 004°27'0 0.0
2015-Jul-04 17:33N 51°14' E 004°27'0 0.0
2015-Jul-04 16:34N 51°14' E 004°27'0 0.0
2015-Jul-04 15:33N 51°14' E 004°27'0 0.1
2015-Jul-04 14:33N 51°14' E 004°27'0 0.0
2015-Jul-04 13:33N 51°14' E 004°27'3 3.0
2015-Jul-04 12:34N 51°15' E 004°22'6 6.4
2015-Jul-04 11:33N 51°21' E 004°18'6 5.6
2015-Jul-04 10:33N 51°26' E 004°14'2 1.5
2015-Jul-04 09:34N 51°27' E 004°14'6 5.6
2015-Jul-04 08:32N 51°33' E 004°14'5 5.2
2015-Jul-04 07:33N 51°38' E 004°15'7 5.0
2015-Jul-04 06:08N 51°41' E 004°25'3 4.4
2015-Jul-04 05:32N 51°42' E 004°29'5 5.4
2015-Jul-04 04:32N 51°43' E 004°37'0 0.0
2015-Jul-04 03:33N 51°43' E 004°37'0 0.0
2015-Jul-04 02:29N 51°43' E 004°37'0 0.0
2015-Jul-04 01:30N 51°43' E 004°37'0 0.0
2015-Jul-04 00:33N 51°43' E 004°37'0 0.0
2015-Jul-03 23:33N 51°43' E 004°37'0 0.0
2015-Jul-03 22:33N 51°43' E 004°37'0 0.0
2015-Jul-03 21:33N 51°43' E 004°37'4 4.3
2015-Jul-03 20:33N 51°45' E 004°43'7 6.7
2015-Jul-03 19:33N 51°49' E 004°52'13 1.5
2015-Jul-03 11:17N 51°49' E 005°13'5 6.1
2015-Jul-03 10:30N 51°48' E 005°21'51 3.6
2015-Jul-02 20:26N 51°35' E 006°40'18 6.3
2015-Jul-02 17:33N 51°17' E 006°42'6 5.7
2015-Jul-02 16:33N 51°11' E 006°44'19 6.2
2015-Jul-02 13:30N 50°54' E 006°59'  
Track history (hours):
 
Tides and Currents Weather Stations Pressure Air Temp Water Temp Dewpoint Dewpoint Depression Visibility Wind Speed Wind Dir Waves Ship Positions

Hamaritha

Last reported at 2015-Jul-08 01:33 UTC. Time now 2015-Jul-08 02:16 UTC.
Position N 51°14' E 004°27'.

Length 86 m.

Type: Ship. MMSI: 244700691.

Date/timePositionNaut miles runAvg speedWind from/ knotsBaromVisibWave heightAir tempDewpointWater temp
2015-Jul-08 01:33N 51°14' E 004°27'0 0.0
2015-Jul-08 00:33N 51°14' E 004°27'0 0.0
2015-Jul-07 23:33N 51°14' E 004°27'0 0.0
2015-Jul-07 22:33N 51°14' E 004°27'0 0.0
2015-Jul-07 21:33N 51°14' E 004°27'0 0.0
2015-Jul-07 20:33N 51°14' E 004°27'0 0.0
2015-Jul-07 19:33N 51°14' E 004°27'0 0.0
2015-Jul-07 18:33N 51°14' E 004°27'0 0.0
2015-Jul-07 17:33N 51°14' E 004°27'0 0.0
2015-Jul-07 16:33N 51°14' E 004°27'0 0.0
2015-Jul-07 15:33N 51°14' E 004°27'0 0.0
2015-Jul-07 14:33N 51°14' E 004°27'0 0.0
2015-Jul-07 13:33N 51°14' E 004°27'0 0.0
2015-Jul-07 12:33N 51°14' E 004°27'0 0.0
2015-Jul-07 11:33N 51°14' E 004°27'0 0.0
2015-Jul-07 10:33N 51°14' E 004°27'0 0.0
2015-Jul-07 09:33N 51°14' E 004°27'0 0.0
2015-Jul-07 08:33N 51°14' E 004°27'0 0.0
2015-Jul-07 07:34N 51°14' E 004°27'0 0.0
2015-Jul-07 06:33N 51°14' E 004°27'0 0.0
2015-Jul-07 05:33N 51°14' E 004°27'0 0.0
2015-Jul-07 04:33N 51°14' E 004°27'0 0.0
2015-Jul-07 03:33N 51°14' E 004°27'0 0.0
2015-Jul-07 02:34N 51°14' E 004°27'0 0.0
2015-Jul-07 01:34N 51°14' E 004°27'0 0.0
2015-Jul-07 00:33N 51°14' E 004°27'0 0.0
2015-Jul-06 23:33N 51°14' E 004°27'0 0.0
2015-Jul-06 22:34N 51°14' E 004°27'0 0.0
2015-Jul-06 21:33N 51°14' E 004°27'0 0.0
2015-Jul-06 20:34N 51°14' E 004°27'0 0.0
2015-Jul-06 19:34N 51°14' E 004°27'0 0.0
2015-Jul-06 18:34N 51°14' E 004°27'0 0.0
2015-Jul-06 17:33N 51°14' E 004°27'0 0.0
2015-Jul-06 16:34N 51°14' E 004°27'0 0.0
2015-Jul-06 15:33N 51°14' E 004°27'0 0.0
2015-Jul-06 14:33N 51°14' E 004°27'0 0.0
2015-Jul-06 13:34N 51°14' E 004°27'0 0.0
2015-Jul-06 12:33N 51°14' E 004°27'0 0.0
2015-Jul-06 11:34N 51°14' E 004°27'0 0.0
2015-Jul-06 10:34N 51°14' E 004°27'0 0.0
2015-Jul-06 09:33N 51°14' E 004°27'0 0.0
2015-Jul-06 08:34N 51°14' E 004°27'0 0.0
2015-Jul-06 07:33N 51°14' E 004°27'0 0.0
2015-Jul-06 06:34N 51°14' E 004°27'0 0.0
2015-Jul-06 05:33N 51°14' E 004°27'0 0.0
2015-Jul-06 04:34N 51°14' E 004°27'0 0.0
2015-Jul-06 03:33N 51°14' E 004°27'0 0.0
2015-Jul-06 02:33N 51°14' E 004°27'0 0.0
2015-Jul-06 01:33N 51°14' E 004°27'0 0.0
2015-Jul-06 00:33N 51°14' E 004°27'0 0.0
2015-Jul-05 06:22N 51°14' E 004°27'0 0.0
2015-Jul-05 05:33N 51°14' E 004°27'0 0.0
2015-Jul-05 04:33N 51°14' E 004°27'0 0.0
2015-Jul-05 03:33N 51°14' E 004°27'0 0.0
2015-Jul-05 02:33N 51°14' E 004°27'0 0.0
2015-Jul-05 01:33N 51°14' E 004°27'0 0.0
2015-Jul-05 00:33N 51°14' E 004°27'0 0.0
2015-Jul-04 23:33N 51°14' E 004°27'0 0.0
2015-Jul-04 22:33N 51°14' E 004°27'0 0.0
2015-Jul-04 21:33N 51°14' E 004°27'0 0.0
2015-Jul-04 20:33N 51°14' E 004°27'0 0.0
2015-Jul-04 19:33N 51°14' E 004°27'0 0.0
2015-Jul-04 18:33N 51°14' E 004°27'0 0.0
2015-Jul-04 17:33N 51°14' E 004°27'0 0.0
2015-Jul-04 16:34N 51°14' E 004°27'0 0.0
2015-Jul-04 15:33N 51°14' E 004°27'0 0.1
2015-Jul-04 14:33N 51°14' E 004°27'0 0.0
2015-Jul-04 13:33N 51°14' E 004°27'3 3.0
2015-Jul-04 12:34N 51°15' E 004°22'6 6.4
2015-Jul-04 11:33N 51°21' E 004°18'6 5.6
2015-Jul-04 10:33N 51°26' E 004°14'2 1.5
2015-Jul-04 09:34N 51°27' E 004°14'6 5.6
2015-Jul-04 08:32N 51°33' E 004°14'5 5.2
2015-Jul-04 07:33N 51°38' E 004°15'7 5.0
2015-Jul-04 06:08N 51°41' E 004°25'3 4.4
2015-Jul-04 05:32N 51°42' E 004°29'5 5.4
2015-Jul-04 04:32N 51°43' E 004°37'0 0.0
2015-Jul-04 03:33N 51°43' E 004°37'0 0.0
2015-Jul-04 02:29N 51°43' E 004°37'0 0.0
2015-Jul-04 01:30N 51°43' E 004°37'0 0.0
2015-Jul-04 00:33N 51°43' E 004°37'0 0.0
2015-Jul-03 23:33N 51°43' E 004°37'0 0.0
2015-Jul-03 22:33N 51°43' E 004°37'0 0.0
2015-Jul-03 21:33N 51°43' E 004°37'4 4.3
2015-Jul-03 20:33N 51°45' E 004°43'7 6.7
2015-Jul-03 19:33N 51°49' E 004°52'13 1.5
2015-Jul-03 11:17N 51°49' E 005°13'5 6.1
2015-Jul-03 10:30N 51°48' E 005°21'51 3.6
2015-Jul-02 20:26N 51°35' E 006°40'18 6.3
2015-Jul-02 17:33N 51°17' E 006°42'6 5.7
2015-Jul-02 16:33N 51°11' E 006°44'19 6.2
2015-Jul-02 13:30N 50°54' E 006°59'  

Dump ship's entire track history